Time;durP1;ratioP1;P1;durP2;ratioP2;P2;SDS_P1;SDS_P2;PMS_P1;PMS_P2;Temp;Humidity;BMP_temperature;BMP_pressure;BME280_temperature;BME280_humidity;BME280_pressure;Samples;Min_cycle;Max_cycle;Signal;HPM_P1;HPM_P2
2023/08/07 00:01:23;;;;;;;0.10;0.10;;;;;;;;;;5074354;28;20869;-69
2023/08/07 00:03:49;;;;;;;0.10;0.10;;;;;;;;;;5080623;28;20556;-69
2023/08/07 00:06:14;;;;;;;0.10;0.10;;;;;;;;;;5072334;28;20542;-69
2023/08/07 00:08:40;;;;;;;0.10;0.10;;;;;;;;;;5072330;28;20483;-70
2023/08/07 00:11:08;;;;;;;0.30;0.30;;;;;;;;;;5086897;28;20078;-70
2023/08/07 00:13:34;;;;;;;0.28;0.28;;;;;;;;;;5074140;28;20082;-69
2023/08/07 00:15:59;;;;;;;0.20;0.20;;;;;;;;;;5064969;28;20068;-69
2023/08/07 00:18:25;;;;;;;0.20;0.20;;;;;;;;;;5073732;28;20103;-69
2023/08/07 00:20:50;;;;;;;0.20;0.20;;;;;;;;;;5073724;28;20127;-69
2023/08/07 00:23:16;;;;;;;0.20;0.20;;;;;;;;;;5073555;28;20028;-69
2023/08/07 00:25:41;;;;;;;0.20;0.20;;;;;;;;;;5073776;28;20064;-70
2023/08/07 00:28:07;;;;;;;0.20;0.20;;;;;;;;;;5073459;28;20562;-69
2023/08/07 00:30:32;;;;;;;0.20;0.20;;;;;;;;;;5073542;28;20043;-69
2023/08/07 00:32:58;;;;;;;0.20;0.20;;;;;;;;;;5055446;28;20025;-69
2023/08/07 00:35:23;;;;;;;0.20;0.20;;;;;;;;;;5089087;28;20497;-69
2023/08/07 00:37:48;;;;;;;0.10;0.10;;;;;;;;;;5078287;28;20077;-70
2023/08/07 00:40:14;;;;;;;0.20;0.20;;;;;;;;;;5056019;28;20047;-69
2023/08/07 00:42:39;;;;;;;0.20;0.20;;;;;;;;;;5055804;28;20396;-69
2023/08/07 00:45:05;;;;;;;0.20;0.20;;;;;;;;;;5073600;28;20036;-69
2023/08/07 00:47:31;;;;;;;0.20;0.20;;;;;;;;;;5055522;28;20048;-69
2023/08/07 00:49:57;;;;;;;0.20;0.20;;;;;;;;;;5073487;28;20137;-68
2023/08/07 00:52:23;;;;;;;0.20;0.20;;;;;;;;;;5073178;28;20514;-70
2023/08/07 00:54:49;;;;;;;0.17;0.17;;;;;;;;;;5074255;28;20024;-69
2023/08/07 00:57:15;;;;;;;0.20;0.20;;;;;;;;;;5054926;28;20033;-69
2023/08/07 00:59:41;;;;;;;0.20;0.20;;;;;;;;;;5072860;28;20036;-69
2023/08/07 01:02:06;;;;;;;0.30;0.30;;;;;;;;;;5055185;28;20388;-69
2023/08/07 01:04:32;;;;;;;0.40;0.40;;;;;;;;;;5073934;28;20376;-69
2023/08/07 01:06:57;;;;;;;0.20;0.20;;;;;;;;;;5056153;28;20024;-69
2023/08/07 01:09:25;;;;;;;0.10;0.10;;;;;;;;;;5073210;28;20063;-68
2023/08/07 01:11:56;;;;;;;0.22;0.22;;;;;;;;;;5073384;28;20052;-69
2023/08/07 01:14:40;;;;;;;0.20;0.20;;;;;;;;;;5055529;28;20467;-69
2023/08/07 01:17:06;;;;;;;0.20;0.20;;;;;;;;;;5073003;28;20438;-69
2023/08/07 01:19:33;;;;;;;0.20;0.20;;;;;;;;;;5072934;28;20388;-69
2023/08/07 01:22:06;;;;;;;0.20;0.20;;;;;;;;;;5085896;28;20441;-68
2023/08/07 01:24:32;;;;;;;0.20;0.20;;;;;;;;;;5113523;28;20043;-68
2023/08/07 01:27:00;;;;;;;0.20;0.20;;;;;;;;;;5113143;28;20015;-68
2023/08/07 01:29:32;;;;;;;0.20;0.20;;;;;;;;;;5094185;28;20039;-68
2023/08/07 01:31:59;;;;;;;0.20;0.20;;;;;;;;;;5110959;28;20526;-68
2023/08/07 01:34:25;;;;;;;0.20;0.20;;;;;;;;;;5113156;28;20032;-69
2023/08/07 01:36:53;;;;;;;0.20;0.20;;;;;;;;;;5113263;28;20035;-69
2023/08/07 01:39:19;;;;;;;0.20;0.20;;;;;;;;;;5113526;28;20023;-69
2023/08/07 01:41:45;;;;;;;0.20;0.20;;;;;;;;;;5113120;28;20032;-69
2023/08/07 01:44:10;;;;;;;0.10;0.10;;;;;;;;;;5095171;28;20035;-69
2023/08/07 01:46:36;;;;;;;0.20;0.20;;;;;;;;;;5112022;28;20067;-69
2023/08/07 01:49:01;;;;;;;0.17;0.17;;;;;;;;;;5079112;28;20047;-69
2023/08/07 01:51:27;;;;;;;0.20;0.20;;;;;;;;;;5072344;28;20028;-69
2023/08/07 01:53:52;;;;;;;0.10;0.10;;;;;;;;;;5071727;28;20052;-69
2023/08/07 01:56:18;;;;;;;0.20;0.20;;;;;;;;;;5072219;28;20037;-69
2023/08/07 01:58:43;;;;;;;0.20;0.20;;;;;;;;;;5072160;28;20055;-69
2023/08/07 02:01:09;;;;;;;0.20;0.20;;;;;;;;;;5054399;28;20101;-69
2023/08/07 02:03:34;;;;;;;0.20;0.20;;;;;;;;;;5072360;28;20033;-69
2023/08/07 02:06:00;;;;;;;0.20;0.20;;;;;;;;;;5072648;28;20107;-69
2023/08/07 02:08:26;;;;;;;0.20;0.20;;;;;;;;;;5072406;28;20039;-69
2023/08/07 02:10:51;;;;;;;0.20;0.20;;;;;;;;;;5072306;28;20040;-68
2023/08/07 02:13:16;;;;;;;0.20;0.20;;;;;;;;;;5054464;28;20040;-68
2023/08/07 02:15:42;;;;;;;0.20;0.20;;;;;;;;;;5072418;28;20119;-68
2023/08/07 02:18:07;;;;;;;0.20;0.20;;;;;;;;;;5071989;28;20458;-68
2023/08/07 02:20:33;;;;;;;0.20;0.20;;;;;;;;;;5072056;28;20042;-69
2023/08/07 02:22:58;;;;;;;0.20;0.20;;;;;;;;;;5075375;28;20044;-69
2023/08/07 02:25:26;;;;;;;0.20;0.20;;;;;;;;;;5062401;28;20029;-69
2023/08/07 02:27:51;;;;;;;0.20;0.20;;;;;;;;;;5116329;28;20039;-69
2023/08/07 02:30:17;;;;;;;0.10;0.10;;;;;;;;;;5116193;28;20020;-69
2023/08/07 02:32:44;;;;;;;0.20;0.20;;;;;;;;;;5115985;28;20409;-69
2023/08/07 02:35:11;;;;;;;0.20;0.20;;;;;;;;;;5116082;28;20531;-69
2023/08/07 02:37:36;;;;;;;0.20;0.20;;;;;;;;;;5115971;28;20044;-69
2023/08/07 02:40:02;;;;;;;0.20;0.20;;;;;;;;;;5115729;28;20111;-69
2023/08/07 02:42:27;;;;;;;0.20;0.20;;;;;;;;;;5097890;28;20402;-69
2023/08/07 02:44:52;;;;;;;0.20;0.20;;;;;;;;;;5083286;28;20484;-69
2023/08/07 02:47:18;;;;;;;0.20;0.20;;;;;;;;;;5075252;28;20037;-69
2023/08/07 02:49:44;;;;;;;0.20;0.20;;;;;;;;;;5075139;28;20028;-69
2023/08/07 02:52:10;;;;;;;0.20;0.20;;;;;;;;;;5075086;28;20131;-69
2023/08/07 02:54:35;;;;;;;0.20;0.20;;;;;;;;;;5075151;28;20033;-69
2023/08/07 02:57:00;;;;;;;0.20;0.20;;;;;;;;;;5057110;28;20111;-69
2023/08/07 02:59:26;;;;;;;0.20;0.20;;;;;;;;;;5057209;28;20040;-68
2023/08/07 03:01:51;;;;;;;0.20;0.20;;;;;;;;;;5072605;28;20028;-69
2023/08/07 03:04:17;;;;;;;0.20;0.20;;;;;;;;;;5091282;28;20036;-69
2023/08/07 03:06:42;;;;;;;0.30;0.30;;;;;;;;;;5092101;28;20028;-69
2023/08/07 03:09:08;;;;;;;0.20;0.20;;;;;;;;;;5091621;28;20059;-69
2023/08/07 03:11:33;;;;;;;0.20;0.20;;;;;;;;;;5073485;28;20089;-68
2023/08/07 03:13:59;;;;;;;0.20;0.20;;;;;;;;;;5090930;28;20395;-68
2023/08/07 03:16:24;;;;;;;0.20;0.20;;;;;;;;;;5073354;28;20040;-68
2023/08/07 03:18:50;;;;;;;0.20;0.20;;;;;;;;;;5090968;28;20028;-68
2023/08/07 03:21:15;;;;;;;0.20;0.20;;;;;;;;;;5072334;28;20483;-69
2023/08/07 03:23:41;;;;;;;0.10;0.10;;;;;;;;;;5072848;28;20043;-68
2023/08/07 03:26:09;;;;;;;0.20;0.20;;;;;;;;;;5072525;28;20038;-69
2023/08/07 03:28:36;;;;;;;0.15;0.15;;;;;;;;;;5091020;28;20115;-69
2023/08/07 03:31:02;;;;;;;0.10;0.10;;;;;;;;;;5091186;28;20120;-68
2023/08/07 03:33:30;;;;;;;0.20;0.20;;;;;;;;;;5089527;28;20044;-68
2023/08/07 03:35:56;;;;;;;0.20;0.20;;;;;;;;;;5072619;28;20069;-69
2023/08/07 03:38:21;;;;;;;0.20;0.20;;;;;;;;;;5090963;28;20432;-69
2023/08/07 03:40:50;;;;;;;0.20;0.20;;;;;;;;;;5072740;28;20036;-69
2023/08/07 03:43:16;;;;;;;0.20;0.20;;;;;;;;;;5072763;28;20054;-69
2023/08/07 03:45:41;;;;;;;0.20;0.20;;;;;;;;;;5090335;28;20087;-69
2023/08/07 03:48:07;;;;;;;0.20;0.20;;;;;;;;;;5072075;28;20134;-69
2023/08/07 03:50:36;;;;;;;0.20;0.20;;;;;;;;;;5090425;28;20036;-69
2023/08/07 03:53:04;;;;;;;0.15;0.15;;;;;;;;;;5090283;28;20043;-69
2023/08/07 03:55:30;;;;;;;0.20;0.20;;;;;;;;;;5089850;28;20067;-69
2023/08/07 03:57:55;;;;;;;0.20;0.20;;;;;;;;;;5090400;28;20059;-69
2023/08/07 04:00:22;;;;;;;0.20;0.20;;;;;;;;;;5070310;28;20039;-69
2023/08/07 04:02:49;;;;;;;0.10;0.10;;;;;;;;;;5067455;28;20021;-69
2023/08/07 04:05:15;;;;;;;0.13;0.13;;;;;;;;;;5050392;28;20131;-69
2023/08/07 04:07:41;;;;;;;0.20;0.20;;;;;;;;;;5051055;28;20452;-69
2023/08/07 04:10:06;;;;;;;0.10;0.10;;;;;;;;;;5051926;28;20036;-68
2023/08/07 04:12:32;;;;;;;0.25;0.25;;;;;;;;;;5051773;28;20144;-69
2023/08/07 04:14:59;;;;;;;0.20;0.20;;;;;;;;;;5051778;28;20127;-68
2023/08/07 04:17:24;;;;;;;0.20;0.20;;;;;;;;;;5069534;28;20111;-68
2023/08/07 04:19:49;;;;;;;0.20;0.20;;;;;;;;;;5051724;28;20043;-68
2023/08/07 04:22:15;;;;;;;0.17;0.17;;;;;;;;;;5069787;28;20032;-68
2023/08/07 04:24:40;;;;;;;0.20;0.20;;;;;;;;;;5051622;28;20040;-68
2023/08/07 04:27:06;;;;;;;0.20;0.20;;;;;;;;;;5051071;28;20036;-68
2023/08/07 04:29:31;;;;;;;0.20;0.20;;;;;;;;;;5069774;28;20040;-68
2023/08/07 04:31:57;;;;;;;0.20;0.20;;;;;;;;;;5069252;28;20027;-68
2023/08/07 04:34:22;;;;;;;0.10;0.10;;;;;;;;;;5069672;28;20090;-68
2023/08/07 04:36:50;;;;;;;0.20;0.20;;;;;;;;;;5070577;28;20543;-68
2023/08/07 04:39:15;;;;;;;0.20;0.20;;;;;;;;;;5069606;28;20483;-68
2023/08/07 04:41:41;;;;;;;0.20;0.20;;;;;;;;;;5069707;28;20051;-69
2023/08/07 04:44:06;;;;;;;0.20;0.20;;;;;;;;;;5069099;28;20036;-69
2023/08/07 04:46:33;;;;;;;0.20;0.20;;;;;;;;;;5062732;28;20028;-69
2023/08/07 04:49:00;;;;;;;0.20;0.20;;;;;;;;;;5089719;28;20503;-68
2023/08/07 04:51:26;;;;;;;0.20;0.20;;;;;;;;;;5089671;28;20028;-69
2023/08/07 04:53:51;;;;;;;0.20;0.20;;;;;;;;;;5089119;28;20126;-68
2023/08/07 04:56:17;;;;;;;0.20;0.20;;;;;;;;;;5089860;28;20379;-69
2023/08/07 04:58:42;;;;;;;0.20;0.20;;;;;;;;;;5072077;28;20127;-69
2023/08/07 05:01:08;;;;;;;0.20;0.20;;;;;;;;;;5071642;28;20028;-69
2023/08/07 05:03:34;;;;;;;0.20;0.20;;;;;;;;;;5070157;28;20579;-69
2023/08/07 05:06:00;;;;;;;0.20;0.20;;;;;;;;;;5069625;28;20056;-70
2023/08/07 05:08:26;;;;;;;0.20;0.20;;;;;;;;;;5069490;28;20391;-69
2023/08/07 05:10:52;;;;;;;0.10;0.10;;;;;;;;;;5069573;28;20062;-69
2023/08/07 05:13:17;;;;;;;0.20;0.20;;;;;;;;;;5080612;28;20036;-69
2023/08/07 05:15:43;;;;;;;0.20;0.20;;;;;;;;;;5069484;28;20379;-69
2023/08/07 05:18:08;;;;;;;0.20;0.20;;;;;;;;;;5079529;28;20415;-69
2023/08/07 05:20:34;;;;;;;0.20;0.20;;;;;;;;;;5068937;28;20036;-69
2023/08/07 05:22:59;;;;;;;0.17;0.17;;;;;;;;;;5068955;28;20032;-69
2023/08/07 05:25:25;;;;;;;0.10;0.10;;;;;;;;;;5068740;28;20037;-69
2023/08/07 05:27:51;;;;;;;0.35;0.35;;;;;;;;;;5069879;28;20024;-69
2023/08/07 05:30:16;;;;;;;0.20;0.20;;;;;;;;;;5068913;28;20033;-69
2023/08/07 05:32:42;;;;;;;0.20;0.20;;;;;;;;;;5067553;28;20107;-69
2023/08/07 05:35:08;;;;;;;0.30;0.30;;;;;;;;;;5068206;28;20132;-69
2023/08/07 05:37:34;;;;;;;0.20;0.20;;;;;;;;;;5068784;28;20497;-69
2023/08/07 05:39:59;;;;;;;0.20;0.20;;;;;;;;;;5050408;28;20435;-69
2023/08/07 05:42:25;;;;;;;0.20;0.20;;;;;;;;;;5069462;28;20024;-69
2023/08/07 05:44:51;;;;;;;0.20;0.20;;;;;;;;;;5068328;28;20043;-70
2023/08/07 05:47:16;;;;;;;0.20;0.20;;;;;;;;;;5070786;28;20035;-69
2023/08/07 05:49:42;;;;;;;0.20;0.20;;;;;;;;;;5051003;28;20033;-69
2023/08/07 05:52:07;;;;;;;0.20;0.20;;;;;;;;;;5068316;28;20033;-69
2023/08/07 05:54:33;;;;;;;0.20;0.20;;;;;;;;;;5068648;28;20028;-69
2023/08/07 05:56:58;;;;;;;0.30;0.30;;;;;;;;;;5067718;28;20062;-69
2023/08/07 05:59:24;;;;;;;0.10;0.10;;;;;;;;;;5068350;28;20369;-69
2023/08/07 06:01:49;;;;;;;3.50;1.52;;;;;;;;;;5068911;28;20031;-69
2023/08/07 06:04:15;;;;;;;1.23;1.13;;;;;;;;;;5068517;28;20040;-69
2023/08/07 06:06:42;;;;;;;0.20;0.20;;;;;;;;;;5068080;28;20040;-69
2023/08/07 06:09:08;;;;;;;0.20;0.20;;;;;;;;;;5068667;28;20150;-68
2023/08/07 06:11:33;;;;;;;0.20;0.20;;;;;;;;;;5069302;28;20045;-69
2023/08/07 06:13:59;;;;;;;0.30;0.30;;;;;;;;;;5068014;28;20051;-69
2023/08/07 06:16:24;;;;;;;0.20;0.20;;;;;;;;;;5068424;28;20556;-69
2023/08/07 06:18:50;;;;;;;0.20;0.20;;;;;;;;;;5068342;28;20537;-69
2023/08/07 06:21:15;;;;;;;0.20;0.20;;;;;;;;;;5068188;28;20159;-69
2023/08/07 06:23:41;;;;;;;0.20;0.20;;;;;;;;;;5069351;28;20477;-69
2023/08/07 06:26:08;;;;;;;0.30;0.30;;;;;;;;;;5068078;28;20038;-69
2023/08/07 06:28:34;;;;;;;3.53;2.33;;;;;;;;;;5067916;28;20032;-69
2023/08/07 06:31:09;;;;;;;4.90;1.13;;;;;;;;;;5068733;28;20028;-70
2023/08/07 06:33:35;;;;;;;0.20;0.20;;;;;;;;;;5067849;28;20496;-69
2023/08/07 06:36:00;;;;;;;14.10;2.15;;;;;;;;;;5067739;28;20036;-69
2023/08/07 06:38:26;;;;;;;0.43;0.43;;;;;;;;;;5068088;28;20043;-69
2023/08/07 06:40:51;;;;;;;0.28;0.28;;;;;;;;;;5069038;28;20422;-69
2023/08/07 06:43:17;;;;;;;0.20;0.20;;;;;;;;;;5068965;28;20118;-69
2023/08/07 06:45:43;;;;;;;0.20;0.20;;;;;;;;;;5068790;28;20062;-69
2023/08/07 06:48:08;;;;;;;0.60;0.60;;;;;;;;;;5067919;28;20037;-69
2023/08/07 06:50:34;;;;;;;1.90;1.33;;;;;;;;;;5067785;28;20035;-70
2023/08/07 06:52:59;;;;;;;3.65;3.40;;;;;;;;;;5067616;28;20045;-69
2023/08/07 06:55:25;;;;;;;0.20;0.20;;;;;;;;;;5065635;28;20123;-69
2023/08/07 06:57:51;;;;;;;21.40;1.75;;;;;;;;;;5083068;28;20361;-69
2023/08/07 07:00:16;;;;;;;0.30;0.30;;;;;;;;;;5069739;28;20021;-69
2023/08/07 07:02:42;;;;;;;1.55;1.45;;;;;;;;;;5086436;28;20028;-69
2023/08/07 07:05:07;;;;;;;0.30;0.30;;;;;;;;;;5087614;28;20040;-70
2023/08/07 07:07:33;;;;;;;0.20;0.20;;;;;;;;;;5087980;28;20105;-70
2023/08/07 07:10:00;;;;;;;0.20;0.20;;;;;;;;;;5077090;28;20510;-70
2023/08/07 07:12:26;;;;;;;0.20;0.20;;;;;;;;;;5081711;28;20035;-70
2023/08/07 07:14:51;;;;;;;0.20;0.20;;;;;;;;;;5082119;28;20402;-70
2023/08/07 07:17:17;;;;;;;0.20;0.20;;;;;;;;;;5078106;28;20143;-69
2023/08/07 07:19:42;;;;;;;0.20;0.20;;;;;;;;;;5070774;28;20052;-69
2023/08/07 07:22:08;;;;;;;0.30;0.30;;;;;;;;;;5070615;28;20108;-69
2023/08/07 07:24:33;;;;;;;0.20;0.20;;;;;;;;;;5071149;28;20048;-69
2023/08/07 07:26:59;;;;;;;0.20;0.20;;;;;;;;;;5070750;28;20025;-69
2023/08/07 07:29:24;;;;;;;0.20;0.20;;;;;;;;;;5079684;28;20056;-69
2023/08/07 07:31:50;;;;;;;0.20;0.20;;;;;;;;;;5081190;28;20475;-68
2023/08/07 07:34:15;;;;;;;0.20;0.20;;;;;;;;;;5082265;28;20032;-68
2023/08/07 07:36:41;;;;;;;0.20;0.20;;;;;;;;;;5082230;28;20486;-68
2023/08/07 07:39:06;;;;;;;0.20;0.20;;;;;;;;;;5082135;28;20055;-68
2023/08/07 07:41:32;;;;;;;0.95;0.95;;;;;;;;;;5080738;28;20475;-69
2023/08/07 07:43:57;;;;;;;0.20;0.20;;;;;;;;;;5078750;28;20491;-69
2023/08/07 07:46:24;;;;;;;0.25;0.25;;;;;;;;;;5063829;28;20043;-69
2023/08/07 07:48:49;;;;;;;0.20;0.20;;;;;;;;;;5079995;28;20042;-68
2023/08/07 07:51:16;;;;;;;0.20;0.20;;;;;;;;;;5081024;28;20028;-69
2023/08/07 07:53:41;;;;;;;0.30;0.30;;;;;;;;;;5078930;28;20036;-69
2023/08/07 07:56:07;;;;;;;0.20;0.20;;;;;;;;;;5079964;28;20038;-69
2023/08/07 07:58:33;;;;;;;0.20;0.20;;;;;;;;;;5080579;28;20032;-69
2023/08/07 08:00:58;;;;;;;0.20;0.20;;;;;;;;;;5078634;28;20123;-68
2023/08/07 08:03:23;;;;;;;0.20;0.20;;;;;;;;;;5080342;28;20016;-69
2023/08/07 08:05:52;;;;;;;0.20;0.20;;;;;;;;;;5069850;28;20058;-69
2023/08/07 08:08:17;;;;;;;1.07;0.50;;;;;;;;;;5078076;28;20071;-69
2023/08/07 08:10:44;;;;;;;0.40;0.40;;;;;;;;;;5074903;28;20495;-69
2023/08/07 08:13:09;;;;;;;1.20;0.95;;;;;;;;;;5075290;28;20072;-74
2023/08/07 08:15:35;;;;;;;3.00;0.63;;;;;;;;;;5076694;28;20063;-74
2023/08/07 08:18:00;;;;;;;8.10;1.85;;;;;;;;;;5070923;28;20036;-75
2023/08/07 08:20:26;;;;;;;0.20;0.20;;;;;;;;;;5069901;28;20036;-73
2023/08/07 08:22:51;;;;;;;4.90;1.23;;;;;;;;;;5084235;28;20040;-73
2023/08/07 08:25:19;;;;;;;3.72;1.50;;;;;;;;;;5072063;28;20427;-75
2023/08/07 08:27:45;;;;;;;0.55;0.55;;;;;;;;;;5069531;28;20448;-74
2023/08/07 08:30:11;;;;;;;2.72;0.90;;;;;;;;;;5069493;28;20111;-75
2023/08/07 08:32:36;;;;;;;0.32;0.32;;;;;;;;;;5069775;28;20037;-74
2023/08/07 08:35:02;;;;;;;5.32;1.15;;;;;;;;;;5070894;28;20040;-74
2023/08/07 08:37:29;;;;;;;7.53;2.28;;;;;;;;;;5070754;28;20036;-74
2023/08/07 08:39:54;;;;;;;0.20;0.20;;;;;;;;;;5074224;28;20028;-73
2023/08/07 08:42:20;;;;;;;0.75;0.75;;;;;;;;;;5089916;28;20036;-73
2023/08/07 08:44:48;;;;;;;0.30;0.30;;;;;;;;;;5084072;28;20056;-74
2023/08/07 08:47:14;;;;;;;2.65;0.70;;;;;;;;;;5070628;28;20028;-74
2023/08/07 08:49:45;;;;;;;0.20;0.20;;;;;;;;;;5051970;28;20033;-74
2023/08/07 08:52:11;;;;;;;0.30;0.30;;;;;;;;;;5051312;28;20121;-74
2023/08/07 08:54:36;;;;;;;7.63;1.30;;;;;;;;;;5069350;28;20067;-75
2023/08/07 08:57:03;;;;;;;0.98;0.98;;;;;;;;;;5063159;28;20032;-73
2023/08/07 08:59:28;;;;;;;12.50;2.30;;;;;;;;;;5090795;28;20428;-74
2023/08/07 09:01:54;;;;;;;0.20;0.20;;;;;;;;;;5089772;28;20165;-74
2023/08/07 09:04:19;;;;;;;0.30;0.30;;;;;;;;;;5089709;28;20076;-76
2023/08/07 09:06:45;;;;;;;0.30;0.30;;;;;;;;;;5089217;28;20030;-74
2023/08/07 09:09:13;;;;;;;3.55;1.10;;;;;;;;;;5086911;28;20534;-75
2023/08/07 09:11:40;;;;;;;11.10;1.77;;;;;;;;;;5087803;28;20121;-73
2023/08/07 09:14:06;;;;;;;0.60;0.38;;;;;;;;;;5089011;28;20023;-73
2023/08/07 09:16:32;;;;;;;0.30;0.30;;;;;;;;;;5088089;28;20032;-73
2023/08/07 09:18:57;;;;;;;0.63;0.40;;;;;;;;;;5073016;28;20418;-73
2023/08/07 09:21:23;;;;;;;0.90;0.90;;;;;;;;;;5069028;28;20044;-78
2023/08/07 09:23:48;;;;;;;1.33;0.43;;;;;;;;;;5069261;28;20082;-74
2023/08/07 09:26:21;;;;;;;0.30;0.30;;;;;;;;;;5071603;28;20031;-75
2023/08/07 09:28:46;;;;;;;3.60;0.60;;;;;;;;;;5071838;28;20031;-75
2023/08/07 09:31:14;;;;;;;0.38;0.38;;;;;;;;;;5082939;28;20040;-75
2023/08/07 09:33:39;;;;;;;4.97;1.70;;;;;;;;;;5068826;28;20136;-75
2023/08/07 09:36:06;;;;;;;6.43;3.53;;;;;;;;;;5075028;28;20115;-75
2023/08/07 09:38:32;;;;;;;5.30;1.48;;;;;;;;;;5081178;28;20086;-74
2023/08/07 09:41:03;;;;;;;2.00;0.50;;;;;;;;;;5077607;28;20024;-76
2023/08/07 09:43:29;;;;;;;0.30;0.30;;;;;;;;;;5070877;28;20856;-74
2023/08/07 09:46:03;;;;;;;0.95;0.93;;;;;;;;;;5087769;28;20036;-74
2023/08/07 09:48:29;;;;;;;3.60;0.60;;;;;;;;;;5088608;28;20497;-75
2023/08/07 09:50:58;;;;;;;2.13;0.65;;;;;;;;;;5084898;28;20028;-75
2023/08/07 09:53:27;;;;;;;7.07;1.55;;;;;;;;;;5087599;28;20043;-74
2023/08/07 09:55:55;;;;;;;2.15;0.45;;;;;;;;;;5087169;28;20066;-75
2023/08/07 09:58:21;;;;;;;0.88;0.82;;;;;;;;;;5078896;28;20395;-75
2023/08/07 10:00:47;;;;;;;0.98;0.45;;;;;;;;;;5087593;28;20036;-75
2023/08/07 10:03:13;;;;;;;2.05;1.63;;;;;;;;;;5077615;28;20047;-75
2023/08/07 10:05:39;;;;;;;1.05;0.50;;;;;;;;;;5088875;28;20115;-75
2023/08/07 10:08:05;;;;;;;0.75;0.55;;;;;;;;;;5088664;28;20040;-75
2023/08/07 10:10:32;;;;;;;3.75;1.05;;;;;;;;;;5088803;28;20028;-75
2023/08/07 10:13:00;;;;;;;0.30;0.30;;;;;;;;;;5083678;28;20024;-74
2023/08/07 10:15:26;;;;;;;3.05;0.52;;;;;;;;;;5081981;28;20425;-74
2023/08/07 10:17:51;;;;;;;0.30;0.30;;;;;;;;;;5073541;28;20037;-76
2023/08/07 10:20:17;;;;;;;0.30;0.30;;;;;;;;;;5078248;28;20414;-74
2023/08/07 10:22:43;;;;;;;0.38;0.30;;;;;;;;;;5077314;28;20106;-75
2023/08/07 10:25:08;;;;;;;1.00;0.38;;;;;;;;;;5083033;28;20066;-75
2023/08/07 10:27:35;;;;;;;0.73;0.60;;;;;;;;;;5083922;28;20040;-76
2023/08/07 10:30:02;;;;;;;0.55;0.30;;;;;;;;;;5084660;28;20042;-74
2023/08/07 10:32:27;;;;;;;4.80;1.00;;;;;;;;;;5070198;28;20032;-74
2023/08/07 10:34:53;;;;;;;0.45;0.45;;;;;;;;;;5067794;28;20430;-74
2023/08/07 10:37:37;;;;;;;2.72;0.47;;;;;;;;;;5068029;28;20036;-76
2023/08/07 10:40:03;;;;;;;0.43;0.38;;;;;;;;;;5067520;28;20068;-76
2023/08/07 10:42:33;;;;;;;2.33;0.80;;;;;;;;;;5069011;28;20051;-79
2023/08/07 10:45:01;;;;;;;2.63;0.88;;;;;;;;;;5071295;28;20511;-76
2023/08/07 10:47:33;;;;;;;3.00;1.15;;;;;;;;;;5077417;28;20040;-75
2023/08/07 10:49:59;;;;;;;0.82;0.43;;;;;;;;;;5070178;28;20024;-75
2023/08/07 10:52:25;;;;;;;4.32;0.70;;;;;;;;;;5072536;28;20106;-75
2023/08/07 10:54:50;;;;;;;7.43;1.42;;;;;;;;;;5091515;28;20035;-75
2023/08/07 10:57:17;;;;;;;0.30;0.30;;;;;;;;;;5091790;28;20024;-74
2023/08/07 11:00:05;;;;;;;5.15;1.40;;;;;;;;;;5091696;28;20077;-75
2023/08/07 11:02:30;;;;;;;6.87;2.97;;;;;;;;;;5091439;28;20024;-78
2023/08/07 11:04:56;;;;;;;6.70;1.95;;;;;;;;;;5069079;28;20090;-77
2023/08/07 11:07:28;;;;;;;0.30;0.30;;;;;;;;;;5071271;28;20426;-76
2023/08/07 11:09:54;;;;;;;3.75;1.95;;;;;;;;;;5090318;28;20868;-74
2023/08/07 11:12:20;;;;;;;15.52;0.95;;;;;;;;;;5083917;28;20113;-75
2023/08/07 11:14:46;;;;;;;2.92;0.90;;;;;;;;;;5079709;28;20029;-77
2023/08/07 11:17:12;;;;;;;4.13;1.27;;;;;;;;;;5071036;28;20044;-75
2023/08/07 11:19:38;;;;;;;3.42;0.50;;;;;;;;;;5070977;28;20028;-74
2023/08/07 11:22:04;;;;;;;0.30;0.30;;;;;;;;;;5074323;28;20032;-75
2023/08/07 11:24:29;;;;;;;2.47;0.70;;;;;;;;;;5079025;28;20423;-76
2023/08/07 11:26:56;;;;;;;10.13;0.98;;;;;;;;;;5086635;28;20066;-74
2023/08/07 11:29:24;;;;;;;4.40;0.88;;;;;;;;;;5079941;28;20199;-74
2023/08/07 11:31:49;;;;;;;1.77;0.40;;;;;;;;;;5082244;28;20028;-75
2023/08/07 11:34:16;;;;;;;3.75;0.98;;;;;;;;;;5089261;28;20037;-75
2023/08/07 11:36:42;;;;;;;5.97;1.33;;;;;;;;;;5086670;28;20035;-74
2023/08/07 11:39:08;;;;;;;0.43;0.43;;;;;;;;;;5061711;28;20086;-76
2023/08/07 11:41:34;;;;;;;3.15;1.02;;;;;;;;;;5069327;28;20033;-74
2023/08/07 11:43:59;;;;;;;0.82;0.82;;;;;;;;;;5050961;28;20073;-74
2023/08/07 11:46:25;;;;;;;0.75;0.60;;;;;;;;;;5086456;28;20395;-75
2023/08/07 11:48:51;;;;;;;0.30;0.30;;;;;;;;;;5067034;28;20402;-74
2023/08/07 11:51:17;;;;;;;2.10;0.75;;;;;;;;;;5081225;28;20491;-75
2023/08/07 11:53:42;;;;;;;0.30;0.30;;;;;;;;;;5085278;28;20043;-75
2023/08/07 11:56:14;;;;;;;2.75;1.08;;;;;;;;;;5088582;28;20032;-76
2023/08/07 11:58:45;;;;;;;2.30;0.90;;;;;;;;;;5062903;28;20040;-75
2023/08/07 12:01:12;;;;;;;3.70;1.00;;;;;;;;;;5086835;28;20516;-77
2023/08/07 12:03:39;;;;;;;0.40;0.40;;;;;;;;;;5088031;28;20035;-76
2023/08/07 12:06:06;;;;;;;0.20;0.20;;;;;;;;;;5085186;28;20039;-75
2023/08/07 12:08:35;;;;;;;5.70;1.05;;;;;;;;;;5084962;28;20063;-76
2023/08/07 12:11:04;;;;;;;0.25;0.25;;;;;;;;;;5068276;28;20451;-75
2023/08/07 12:13:31;;;;;;;0.45;0.45;;;;;;;;;;5086196;28;20505;-76
2023/08/07 12:15:57;;;;;;;0.20;0.20;;;;;;;;;;5071752;28;20039;-76
2023/08/07 12:18:23;;;;;;;2.20;0.55;;;;;;;;;;5088928;28;20107;-76
2023/08/07 12:20:50;;;;;;;1.20;1.10;;;;;;;;;;5070727;28;20447;-78
2023/08/07 12:23:16;;;;;;;4.28;1.27;;;;;;;;;;5088032;28;20032;-75
2023/08/07 12:25:42;;;;;;;0.50;0.43;;;;;;;;;;5088619;28;20043;-77
2023/08/07 12:28:07;;;;;;;3.13;0.63;;;;;;;;;;5086660;28;20040;-77
2023/08/07 12:30:37;;;;;;;6.90;0.70;;;;;;;;;;5089381;28;20115;-78
2023/08/07 12:33:04;;;;;;;0.22;0.22;;;;;;;;;;5084001;28;20040;-74
2023/08/07 12:35:34;;;;;;;3.28;0.73;;;;;;;;;;5087596;28;20409;-76
2023/08/07 12:38:00;;;;;;;4.75;2.03;;;;;;;;;;5089859;28;20036;-75
2023/08/07 12:40:26;;;;;;;0.85;0.50;;;;;;;;;;5086950;28;20036;-75
2023/08/07 12:42:51;;;;;;;11.10;1.88;;;;;;;;;;5089216;28;20044;-76
2023/08/07 12:45:18;;;;;;;13.70;4.05;;;;;;;;;;5087003;28;20103;-75
2023/08/07 12:47:44;;;;;;;0.35;0.35;;;;;;;;;;5089614;28;20028;-76
2023/08/07 12:50:10;;;;;;;2.65;0.60;;;;;;;;;;5086760;28;20028;-75
2023/08/07 12:52:35;;;;;;;1.30;0.65;;;;;;;;;;5088688;28;20028;-77
2023/08/07 12:55:00;;;;;;;2.00;0.65;;;;;;;;;;5060519;28;20574;-75
2023/08/07 12:57:26;;;;;;;1.30;0.82;;;;;;;;;;5078250;28;20493;-75
2023/08/07 12:59:52;;;;;;;3.45;1.73;;;;;;;;;;5087814;28;20040;-76
2023/08/07 13:02:17;;;;;;;0.88;0.60;;;;;;;;;;5091917;28;20032;-74
2023/08/07 13:04:43;;;;;;;0.20;0.20;;;;;;;;;;5087836;28;20032;-74
2023/08/07 13:07:08;;;;;;;0.30;0.30;;;;;;;;;;5089814;28;20036;-74
2023/08/07 13:09:34;;;;;;;0.30;0.30;;;;;;;;;;5090429;28;20028;-75
2023/08/07 13:11:59;;;;;;;2.15;2.05;;;;;;;;;;5089321;28;20036;-75
2023/08/07 13:14:25;;;;;;;2.58;1.02;;;;;;;;;;5089181;28;20036;-77
2023/08/07 13:16:51;;;;;;;0.30;0.30;;;;;;;;;;5087172;28;20055;-74
2023/08/07 13:19:16;;;;;;;1.35;0.77;;;;;;;;;;5087860;28;20081;-75
2023/08/07 13:21:42;;;;;;;1.48;0.50;;;;;;;;;;5087596;28;20032;-76
2023/08/07 13:24:07;;;;;;;0.50;0.50;;;;;;;;;;5087306;28;20031;-74
2023/08/07 13:26:33;;;;;;;0.77;0.60;;;;;;;;;;5087236;28;20028;-76
2023/08/07 13:28:58;;;;;;;3.78;1.20;;;;;;;;;;5087406;28;20124;-74
2023/08/07 13:31:24;;;;;;;2.15;0.63;;;;;;;;;;5087016;28;20078;-74
2023/08/07 13:33:49;;;;;;;4.45;1.55;;;;;;;;;;5087046;28;20119;-75
2023/08/07 13:36:15;;;;;;;0.30;0.30;;;;;;;;;;5088952;28;20491;-75
2023/08/07 13:38:40;;;;;;;1.73;0.70;;;;;;;;;;5089367;28;20130;-75
2023/08/07 13:41:06;;;;;;;0.30;0.30;;;;;;;;;;5089585;28;20176;-76
2023/08/07 13:43:32;;;;;;;0.77;0.68;;;;;;;;;;5089305;28;20054;-74
2023/08/07 13:45:58;;;;;;;0.45;0.30;;;;;;;;;;5088665;28;20036;-75
2023/08/07 13:48:26;;;;;;;3.05;0.93;;;;;;;;;;5071457;28;20036;-74
2023/08/07 13:50:52;;;;;;;0.47;0.47;;;;;;;;;;5088980;28;20487;-75
2023/08/07 13:53:17;;;;;;;0.63;0.60;;;;;;;;;;5089049;28;20088;-76
2023/08/07 13:55:43;;;;;;;0.60;0.60;;;;;;;;;;5089425;28;20040;-74
2023/08/07 13:58:09;;;;;;;0.40;0.40;;;;;;;;;;5088502;28;20043;-75
2023/08/07 14:00:35;;;;;;;0.47;0.47;;;;;;;;;;5054984;28;20033;-75
2023/08/07 14:03:01;;;;;;;0.40;0.40;;;;;;;;;;5068569;28;20476;-75
2023/08/07 14:05:26;;;;;;;2.10;0.57;;;;;;;;;;5068461;28;20383;-75
2023/08/07 14:07:53;;;;;;;0.63;0.60;;;;;;;;;;5068349;28;20036;-75
2023/08/07 14:10:18;;;;;;;4.40;1.45;;;;;;;;;;5068495;28;20024;-77
2023/08/07 14:12:44;;;;;;;1.27;0.63;;;;;;;;;;5068730;28;20044;-77
2023/08/07 14:15:09;;;;;;;5.90;1.00;;;;;;;;;;5068125;28;20033;-76
2023/08/07 14:17:35;;;;;;;8.93;1.15;;;;;;;;;;5085390;28;20050;-75
2023/08/07 14:20:00;;;;;;;0.32;0.32;;;;;;;;;;5091795;28;20020;-76
2023/08/07 14:22:26;;;;;;;2.85;0.88;;;;;;;;;;5089958;28;20032;-78
2023/08/07 14:24:51;;;;;;;0.57;0.55;;;;;;;;;;5070848;28;20039;-76
2023/08/07 14:27:17;;;;;;;1.15;1.05;;;;;;;;;;5054287;28;20024;-76
2023/08/07 14:29:42;;;;;;;2.90;0.50;;;;;;;;;;5053749;28;20433;-77
2023/08/07 14:32:07;;;;;;;0.30;0.30;;;;;;;;;;5053482;28;20029;-75
2023/08/07 14:34:33;;;;;;;0.22;0.22;;;;;;;;;;5071473;28;20399;-76
2023/08/07 14:36:59;;;;;;;0.30;0.30;;;;;;;;;;5071594;28;20418;-76